createdAt,value
2023-02-21T00:02:09.798Z,24.79
2023-02-21T00:05:13.301Z,24.80
2023-02-21T00:08:17.281Z,24.76
2023-02-21T00:11:23.972Z,24.72
2023-02-21T00:14:28.139Z,24.54
2023-02-21T00:17:31.387Z,24.55
2023-02-21T00:20:35.959Z,24.63
2023-02-21T00:23:39.321Z,24.39
2023-02-21T00:26:43.081Z,24.44
2023-02-21T00:29:48.826Z,24.21
2023-02-21T00:32:52.256Z,24.22
2023-02-21T00:35:58.968Z,24.18
2023-02-21T00:39:05.159Z,24.18
2023-02-21T00:42:08.508Z,24.21
2023-02-21T00:45:12.657Z,24.18
2023-02-21T00:48:21.762Z,24.01
2023-02-21T00:51:25.277Z,23.97
2023-02-21T00:54:29.382Z,23.90
2023-02-21T00:57:33.347Z,23.84
2023-02-21T01:00:38.539Z,23.84
2023-02-21T01:03:42.195Z,23.74
2023-02-21T01:06:45.814Z,23.69
2023-02-21T01:09:50.379Z,23.55
2023-02-21T01:12:54.348Z,23.50
2023-02-21T01:15:58.505Z,23.41
2023-02-21T01:19:05.839Z,23.35
2023-02-21T01:22:10.955Z,23.20
2023-02-21T01:25:15.292Z,23.24
2023-02-21T01:28:18.514Z,23.15
2023-02-21T01:31:22.366Z,23.08
2023-02-21T01:34:28.665Z,22.96
2023-02-21T01:37:31.902Z,23.10
2023-02-21T01:40:35.546Z,22.89
2023-02-21T01:43:39.484Z,22.98
2023-02-21T01:46:43.276Z,22.74
2023-02-21T01:49:46.669Z,22.76
2023-02-21T01:52:50.546Z,22.77
2023-02-21T01:55:57.675Z,22.66
2023-02-21T01:59:02.958Z,22.56
2023-02-21T02:02:43.629Z,22.47
2023-02-21T02:05:50.084Z,22.39
2023-02-21T02:08:53.949Z,22.36
2023-02-21T02:12:06.095Z,22.37
2023-02-21T02:15:10.978Z,22.22
2023-02-21T02:18:32.549Z,22.22
2023-02-21T02:22:00.540Z,22.15
2023-02-21T02:25:10.502Z,22.03
2023-02-21T02:28:41.759Z,22.01
2023-02-21T02:32:08.990Z,21.90
2023-02-21T02:35:35.864Z,22.03
2023-02-21T02:39:00.184Z,21.90
2023-02-21T02:42:32.497Z,21.67
2023-02-21T02:45:44.525Z,21.72
2023-02-21T02:48:58.644Z,21.69
2023-02-21T02:52:11.382Z,21.61
2023-02-21T02:55:40.409Z,21.77
2023-02-21T02:58:57.440Z,21.62
2023-02-21T03:02:12.775Z,21.57
2023-02-21T03:05:28.043Z,21.59
2023-02-21T03:08:41.887Z,21.66
2023-02-21T03:12:22.480Z,21.65
2023-02-21T03:15:43.312Z,21.53
2023-02-21T03:19:26.748Z,21.38
2023-02-21T03:22:31.279Z,21.38
2023-02-21T03:25:36.160Z,21.31
2023-02-21T03:28:40.431Z,21.25
2023-02-21T03:31:51.356Z,21.27
2023-02-21T03:34:54.926Z,21.35
2023-02-21T03:38:02.303Z,21.16
2023-02-21T03:41:05.877Z,21.15
2023-02-21T03:44:09.060Z,21.22
2023-02-21T03:47:33.608Z,21.24
2023-02-21T03:50:38.060Z,21.32
2023-02-21T03:53:42.631Z,21.19
2023-02-21T03:56:45.839Z,21.22
2023-02-21T03:59:49.282Z,21.20
2023-02-21T04:02:52.527Z,21.20
2023-02-21T04:05:55.824Z,21.11
2023-02-21T04:08:59.007Z,21.26
2023-02-21T04:12:02.271Z,21.12
2023-02-21T04:15:05.707Z,21.18
2023-02-21T04:18:09.833Z,21.22
2023-02-21T04:21:18.267Z,21.11
2023-02-21T04:24:24.787Z,21.00
2023-02-21T04:27:28.031Z,21.06
2023-02-21T04:30:32.550Z,20.92
2023-02-21T04:33:36.314Z,20.94
2023-02-21T04:36:40.901Z,20.99
2023-02-21T04:39:44.163Z,20.94
2023-02-21T04:42:48.870Z,20.95
2023-02-21T04:45:52.174Z,21.01
2023-02-21T04:48:55.880Z,20.99
2023-02-21T04:51:59.473Z,20.90
2023-02-21T04:55:03.953Z,20.79
2023-02-21T04:58:07.381Z,20.87
2023-02-21T05:01:15.203Z,20.82
2023-02-21T05:04:19.375Z,20.84
2023-02-21T05:07:22.731Z,20.81
2023-02-21T05:10:33.807Z,20.78
2023-02-21T05:13:47.815Z,20.71
2023-02-21T05:16:51.812Z,20.65
2023-02-21T05:19:57.184Z,20.71
2023-02-21T05:23:08.251Z,20.72
2023-02-21T05:26:18.190Z,20.60
2023-02-21T05:29:21.860Z,20.77
2023-02-21T05:32:25.256Z,20.82
2023-02-21T05:35:28.455Z,20.74
2023-02-21T05:38:31.764Z,20.69
2023-02-21T05:41:35.875Z,20.63
2023-02-21T05:44:40.027Z,20.55
2023-02-21T05:47:43.202Z,20.60
2023-02-21T05:50:46.552Z,20.63
2023-02-21T05:53:50.402Z,20.56
2023-02-21T05:56:54.732Z,20.59
2023-02-21T05:59:58.729Z,20.56
2023-02-21T06:03:05.105Z,20.49
2023-02-21T06:06:09.248Z,20.58
2023-02-21T06:09:14.877Z,20.59
2023-02-21T06:12:18.137Z,20.45
2023-02-21T06:15:22.233Z,20.44
2023-02-21T06:18:27.648Z,20.65
2023-02-21T06:21:31.837Z,20.51
2023-02-21T06:24:35.179Z,20.39
2023-02-21T06:27:38.514Z,20.57
2023-02-21T06:30:42.534Z,20.60
2023-02-21T06:33:45.859Z,20.71
2023-02-21T06:36:53.222Z,20.53
2023-02-21T06:39:57.760Z,20.52
2023-02-21T06:43:04.136Z,20.58
2023-02-21T06:46:07.421Z,20.64
2023-02-21T06:49:13.052Z,20.55
2023-02-21T06:52:16.562Z,20.49
2023-02-21T06:55:25.445Z,20.47
2023-02-21T06:58:29.107Z,20.50
2023-02-21T07:01:32.622Z,20.53
2023-02-21T07:04:35.938Z,20.63
2023-02-21T07:07:39.216Z,20.75
2023-02-21T07:10:45.068Z,20.64
2023-02-21T07:13:53.785Z,20.79
2023-02-21T07:16:57.082Z,20.74
2023-02-21T07:20:00.789Z,20.62
2023-02-21T07:23:04.225Z,20.51
2023-02-21T07:26:08.695Z,20.60
2023-02-21T07:29:14.504Z,20.42
2023-02-21T07:32:19.077Z,20.55
2023-02-21T07:35:22.375Z,20.51
2023-02-21T07:38:28.888Z,20.48
2023-02-21T07:41:32.815Z,20.54
2023-02-21T07:44:36.119Z,20.50
2023-02-21T07:47:39.335Z,20.46
2023-02-21T07:50:44.471Z,20.45
2023-02-21T07:53:50.262Z,20.47
2023-02-21T07:56:53.444Z,20.64
2023-02-21T07:59:57.376Z,20.52
2023-02-21T08:03:01.140Z,20.66
2023-02-21T08:06:06.182Z,20.61
2023-02-21T08:09:09.410Z,20.61
2023-02-21T08:12:13.062Z,20.57
2023-02-21T08:15:17.067Z,20.50
2023-02-21T08:18:23.841Z,20.61
2023-02-21T08:21:27.068Z,20.70
2023-02-21T08:24:30.264Z,20.62
2023-02-21T08:27:33.470Z,20.62
2023-02-21T08:30:37.868Z,20.62
2023-02-21T08:33:41.145Z,20.61
2023-02-21T08:36:45.101Z,20.52
2023-02-21T08:39:50.396Z,20.56
2023-02-21T08:42:57.940Z,20.60
2023-02-21T08:46:01.813Z,20.63
2023-02-21T08:49:06.515Z,20.55
2023-02-21T08:52:10.472Z,20.56
2023-02-21T08:55:14.189Z,20.68
2023-02-21T08:58:17.819Z,20.75
2023-02-21T09:01:22.511Z,20.68
2023-02-21T09:04:26.286Z,20.67
2023-02-21T09:07:31.462Z,20.74
2023-02-21T09:10:35.157Z,20.74
2023-02-21T09:13:41.986Z,20.65
2023-02-21T09:16:47.831Z,20.84
2023-02-21T09:19:51.310Z,20.82
2023-02-21T09:22:54.644Z,20.81
2023-02-21T09:25:59.450Z,20.81
2023-02-21T09:29:04.301Z,20.77
2023-02-21T09:32:07.686Z,20.75
2023-02-21T09:35:14.121Z,20.79
2023-02-21T09:38:17.445Z,20.64
2023-02-21T09:41:21.876Z,20.70
2023-02-21T09:44:29.956Z,20.72
2023-02-21T09:47:38.120Z,20.65
2023-02-21T09:50:51.227Z,20.63
2023-02-21T09:53:57.419Z,20.89
2023-02-21T09:57:07.913Z,20.70
2023-02-21T10:00:24.872Z,20.70
2023-02-21T10:03:56.823Z,20.84
2023-02-21T10:07:21.525Z,20.76
2023-02-21T10:10:36.307Z,20.60
2023-02-21T10:14:04.893Z,20.74
2023-02-21T10:17:13.831Z,20.72
2023-02-21T10:20:29.078Z,20.82
2023-02-21T10:23:40.301Z,20.88
2023-02-21T10:26:50.173Z,20.83
2023-02-21T10:30:08.822Z,20.76
2023-02-21T10:33:16.154Z,20.73
2023-02-21T10:36:23.722Z,20.78
2023-02-21T10:39:35.560Z,20.91
2023-02-21T10:42:45.876Z,20.97
2023-02-21T10:46:02.099Z,20.84
2023-02-21T10:49:24.648Z,20.80
2023-02-21T10:52:27.971Z,20.71
2023-02-21T10:55:33.454Z,20.70
2023-02-21T10:58:37.894Z,20.84
2023-02-21T11:01:47.578Z,20.81
2023-02-21T11:04:51.802Z,20.86
2023-02-21T11:08:08.647Z,20.76
2023-02-21T11:11:12.260Z,20.91
2023-02-21T11:14:18.509Z,20.92
2023-02-21T11:17:30.555Z,20.92
2023-02-21T11:20:33.784Z,20.74
2023-02-21T11:23:37.272Z,20.68
2023-02-21T11:26:55.542Z,20.70
2023-02-21T11:29:59.373Z,20.72
2023-02-21T11:33:05.770Z,20.79
2023-02-21T11:36:14.837Z,20.65
2023-02-21T11:39:26.676Z,20.67
2023-02-21T11:42:34.302Z,20.68
2023-02-21T11:45:44.687Z,20.79
2023-02-21T11:49:05.346Z,20.67
2023-02-21T11:52:16.360Z,20.77
2023-02-21T11:55:23.609Z,20.78
2023-02-21T11:58:40.628Z,20.87
2023-02-21T12:02:30.018Z,20.86
2023-02-21T12:06:01.266Z,20.86
2023-02-21T12:09:14.794Z,20.81
2023-02-21T12:12:46.248Z,20.79
2023-02-21T12:16:02.926Z,20.77
2023-02-21T12:19:27.472Z,20.79
2023-02-21T12:23:09.446Z,20.73
2023-02-21T12:26:34.866Z,20.82
2023-02-21T12:29:56.030Z,20.65
2023-02-21T12:33:31.712Z,20.68
2023-02-21T12:36:57.688Z,20.78
2023-02-21T12:40:04.087Z,20.72
2023-02-21T12:43:43.254Z,20.66
2023-02-21T12:46:55.560Z,20.80
2023-02-21T12:50:18.497Z,20.74
2023-02-21T12:53:30.533Z,20.85
2023-02-21T12:56:42.735Z,20.84
2023-02-21T12:59:54.915Z,20.82
2023-02-21T13:03:19.457Z,20.80
2023-02-21T13:06:34.418Z,20.73
2023-02-21T13:09:48.741Z,20.91
2023-02-21T13:13:25.000Z,20.92
2023-02-21T13:16:28.395Z,20.79
2023-02-21T13:20:05.899Z,20.90
2023-02-21T13:23:27.512Z,20.77
2023-02-21T13:26:51.680Z,20.96
2023-02-21T13:30:19.826Z,20.95
2023-02-21T13:33:37.795Z,20.97
2023-02-21T13:36:42.058Z,21.02
2023-02-21T13:39:47.986Z,20.87
2023-02-21T13:43:06.096Z,20.95
2023-02-21T13:46:32.510Z,20.87
2023-02-21T13:49:46.437Z,20.79
2023-02-21T13:53:03.474Z,20.84
2023-02-21T13:56:09.668Z,20.94
2023-02-21T13:59:25.697Z,21.00
2023-02-21T14:02:30.518Z,21.03
2023-02-21T14:05:46.839Z,21.05
2023-02-21T14:08:50.872Z,21.03
2023-02-21T14:11:54.752Z,21.02
2023-02-21T14:15:07.419Z,21.30
2023-02-21T14:18:28.093Z,21.24
2023-02-21T14:21:45.343Z,21.19
2023-02-21T14:24:50.471Z,21.18
2023-02-21T14:27:54.430Z,21.17
2023-02-21T14:31:04.947Z,21.23
2023-02-21T14:34:12.345Z,21.18
2023-02-21T14:37:34.677Z,21.22
2023-02-21T14:40:52.059Z,21.29
2023-02-21T14:44:16.104Z,21.29
2023-02-21T14:47:31.984Z,21.39
2023-02-21T14:50:44.298Z,21.30
2023-02-21T14:53:59.779Z,21.42
2023-02-21T14:57:37.342Z,21.39
2023-02-21T15:00:40.506Z,21.28
2023-02-21T15:03:55.365Z,21.36
2023-02-21T15:07:14.549Z,21.31
2023-02-21T15:10:27.685Z,21.64
2023-02-21T15:13:49.842Z,21.40
2023-02-21T15:16:57.245Z,21.53
2023-02-21T15:20:07.494Z,21.42
2023-02-21T15:23:11.546Z,21.78
2023-02-21T15:26:22.738Z,21.72
2023-02-21T15:29:26.050Z,21.86
2023-02-21T15:32:29.970Z,21.81
2023-02-21T15:35:40.142Z,21.87
2023-02-21T15:39:09.619Z,21.89
2023-02-21T15:42:15.735Z,21.97
2023-02-21T15:45:33.038Z,21.94
2023-02-21T15:48:36.435Z,21.99
2023-02-21T15:51:40.270Z,21.93
2023-02-21T15:54:44.235Z,21.91
2023-02-21T15:58:02.230Z,21.77
2023-02-21T16:01:08.184Z,21.95
2023-02-21T16:04:21.632Z,22.04
2023-02-21T16:07:34.519Z,21.98
2023-02-21T16:10:38.451Z,21.89
2023-02-21T16:13:41.872Z,21.98
2023-02-21T16:16:47.346Z,22.23
2023-02-21T16:19:55.364Z,22.29
2023-02-21T16:23:24.084Z,22.37
2023-02-21T16:26:27.363Z,22.42
2023-02-21T16:29:30.604Z,22.38
2023-02-21T16:32:34.426Z,22.36
2023-02-21T16:35:38.227Z,22.49
2023-02-21T16:38:43.102Z,22.56
2023-02-21T16:41:46.411Z,22.65
2023-02-21T16:44:50.340Z,22.44
2023-02-21T16:48:06.392Z,22.56
2023-02-21T16:51:14.664Z,22.69
2023-02-21T16:54:18.556Z,22.69
2023-02-21T16:57:23.423Z,22.65
2023-02-21T17:00:26.779Z,22.97
2023-02-21T17:03:31.771Z,22.96
2023-02-21T17:06:35.464Z,23.10
2023-02-21T17:09:40.298Z,23.09
2023-02-21T17:12:43.611Z,23.38
2023-02-21T17:15:49.359Z,23.41
2023-02-21T17:18:52.662Z,23.75
2023-02-21T17:21:56.029Z,23.38
2023-02-21T17:24:59.596Z,23.13
2023-02-21T17:28:03.900Z,23.31
2023-02-21T17:31:07.574Z,24.14
2023-02-21T17:34:13.339Z,23.82
2023-02-21T17:37:17.504Z,23.90
2023-02-21T17:40:22.985Z,23.77
2023-02-21T17:43:27.579Z,23.54
2023-02-21T17:46:31.726Z,23.85
2023-02-21T17:49:34.908Z,24.23
2023-02-21T17:52:40.532Z,24.43
2023-02-21T17:55:46.340Z,24.58
2023-02-21T17:58:49.635Z,25.41
2023-02-21T18:01:55.928Z,24.86
2023-02-21T18:04:59.874Z,24.59
2023-02-21T18:08:03.657Z,24.65
2023-02-21T18:11:13.990Z,24.85
2023-02-21T18:14:18.289Z,24.65
2023-02-21T18:17:21.808Z,24.32
2023-02-21T18:20:26.589Z,24.68
2023-02-21T18:23:34.053Z,25.64
2023-02-21T18:26:38.002Z,25.41
2023-02-21T18:29:42.182Z,25.58
2023-02-21T18:32:47.730Z,24.84
2023-02-21T18:35:51.923Z,25.01
2023-02-21T18:38:57.037Z,25.13
2023-02-21T18:42:00.277Z,25.15
2023-02-21T18:45:09.237Z,25.02
2023-02-21T18:48:12.610Z,24.96
2023-02-21T18:51:20.379Z,25.07
2023-02-21T18:54:24.750Z,25.22
2023-02-21T18:57:31.324Z,25.11
2023-02-21T19:00:36.020Z,25.47
2023-02-21T19:03:39.580Z,25.37
2023-02-21T19:06:43.470Z,25.29
2023-02-21T19:09:49.842Z,25.38
2023-02-21T19:12:53.217Z,25.68
2023-02-21T19:15:56.777Z,25.58
2023-02-21T19:19:00.786Z,26.29
2023-02-21T19:22:04.576Z,26.27
2023-02-21T19:25:08.355Z,25.90
2023-02-21T19:28:13.142Z,25.69
2023-02-21T19:31:22.649Z,25.21
2023-02-21T19:34:27.325Z,25.19
2023-02-21T19:37:31.875Z,25.25
2023-02-21T19:40:37.843Z,25.41
2023-02-21T19:43:41.361Z,25.35
2023-02-21T19:46:44.765Z,25.17
2023-02-21T19:49:48.864Z,25.28
2023-02-21T19:52:56.838Z,24.99
2023-02-21T19:56:01.542Z,25.14
2023-02-21T19:59:04.992Z,25.45
2023-02-21T20:02:12.213Z,25.47
2023-02-21T20:05:16.404Z,26.15
2023-02-21T20:08:20.027Z,25.73
2023-02-21T20:11:24.590Z,25.32
2023-02-21T20:14:28.516Z,25.39
2023-02-21T20:17:32.037Z,25.41
2023-02-21T20:20:35.269Z,25.51
2023-02-21T20:23:40.671Z,25.52
2023-02-21T20:26:46.412Z,25.39
2023-02-21T20:29:50.507Z,25.15
2023-02-21T20:32:54.738Z,25.14
2023-02-21T20:35:58.687Z,25.69
2023-02-21T20:39:02.986Z,25.46
2023-02-21T20:42:09.115Z,25.54
2023-02-21T20:45:14.652Z,25.60
2023-02-21T20:48:17.989Z,25.29
2023-02-21T20:51:48.604Z,25.36
2023-02-21T20:54:51.873Z,25.37
2023-02-21T20:57:55.920Z,25.29
2023-02-21T21:00:59.328Z,25.19
2023-02-21T21:04:05.022Z,25.28
2023-02-21T21:07:12.803Z,25.42
2023-02-21T21:10:17.842Z,25.49
2023-02-21T21:13:21.365Z,25.54
2023-02-21T21:16:24.672Z,25.49
2023-02-21T21:19:30.027Z,25.43
2023-02-21T21:22:33.548Z,25.50
2023-02-21T21:25:37.617Z,25.49
2023-02-21T21:28:41.981Z,25.49
2023-02-21T21:31:50.575Z,25.48
2023-02-21T21:35:00.196Z,25.63
2023-02-21T21:38:05.534Z,25.58
2023-02-21T21:41:14.520Z,25.60
2023-02-21T21:44:19.531Z,25.59
2023-02-21T21:47:27.710Z,25.80
2023-02-21T21:50:31.016Z,25.68
2023-02-21T21:53:35.168Z,25.83
2023-02-21T21:56:39.961Z,25.41
2023-02-21T21:59:44.036Z,25.30
2023-02-21T22:02:47.814Z,25.25
2023-02-21T22:05:52.428Z,25.32
2023-02-21T22:08:58.649Z,25.32
2023-02-21T22:12:03.185Z,25.17
2023-02-21T22:15:07.159Z,25.34
2023-02-21T22:18:11.729Z,25.12
2023-02-21T22:21:16.924Z,25.07
2023-02-21T22:24:21.007Z,25.13
2023-02-21T22:27:24.298Z,24.88
2023-02-21T22:30:27.746Z,24.95
2023-02-21T22:33:32.725Z,24.93
2023-02-21T22:36:36.965Z,25.22
2023-02-21T22:39:40.765Z,25.08
2023-02-21T22:42:47.358Z,25.98
2023-02-21T22:45:50.926Z,25.36
2023-02-21T22:48:55.602Z,24.84
2023-02-21T22:51:58.908Z,24.87
2023-02-21T22:55:02.131Z,25.01
2023-02-21T22:58:10.882Z,24.82
2023-02-21T23:01:14.662Z,25.73
2023-02-21T23:04:19.135Z,25.19
2023-02-21T23:07:23.009Z,24.84
2023-02-21T23:10:30.021Z,24.67
2023-02-21T23:13:33.967Z,24.64
2023-02-21T23:16:38.598Z,24.71
2023-02-21T23:19:43.149Z,24.61
2023-02-21T23:22:48.280Z,24.52
2023-02-21T23:25:53.454Z,24.52
2023-02-21T23:28:58.532Z,24.53
2023-02-21T23:32:02.433Z,24.42
2023-02-21T23:35:05.895Z,24.27
2023-02-21T23:38:09.525Z,24.26
2023-02-21T23:41:13.812Z,24.21
2023-02-21T23:44:17.485Z,24.37
2023-02-21T23:47:22.583Z,24.13
2023-02-21T23:50:26.878Z,24.01
2023-02-21T23:53:30.443Z,23.97
2023-02-21T23:56:35.147Z,23.88
2023-02-21T23:59:39.702Z,23.87
